createdAt,value
2016-11-29T00:00:50.083Z,-3.53
2016-11-29T00:01:50.314Z,-3.43
2016-11-29T00:02:49.988Z,-3.54
2016-11-29T00:03:50.160Z,-3.44
2016-11-29T00:04:49.901Z,-3.53
2016-11-29T00:05:50.050Z,-3.36
2016-11-29T00:06:50.031Z,-3.57
2016-11-29T00:07:49.904Z,-3.46
2016-11-29T00:08:49.928Z,-3.57
2016-11-29T00:09:49.892Z,-3.36
2016-11-29T00:10:50.120Z,-3.57
2016-11-29T00:11:49.932Z,-3.47
2016-11-29T00:12:49.927Z,-3.51
2016-11-29T00:13:49.978Z,-3.71
2016-11-29T00:14:49.914Z,-3.6
2016-11-29T00:15:50.029Z,-3.6
2016-11-29T00:16:50.060Z,-3.5
2016-11-29T00:17:49.906Z,-3.51
2016-11-29T00:18:50.034Z,-3.67
2016-11-29T00:19:50.080Z,-3.57
2016-11-29T00:20:50.057Z,-3.71
2016-11-29T00:21:49.915Z,-3.54
2016-11-29T00:22:49.881Z,-3.56
2016-11-29T00:23:49.993Z,-3.62
2016-11-29T00:24:49.895Z,-3.61
2016-11-29T00:25:49.926Z,-3.65
2016-11-29T00:26:49.902Z,-3.65
2016-11-29T00:27:49.890Z,-3.62
2016-11-29T00:28:49.902Z,-3.62
2016-11-29T00:29:49.935Z,-3.62
2016-11-29T00:30:50.047Z,-3.71
2016-11-29T00:31:50.048Z,-3.62
2016-11-29T00:32:49.897Z,-3.61
2016-11-29T00:33:49.907Z,-3.72
2016-11-29T00:34:50.132Z,-3.75
2016-11-29T00:35:50.027Z,-3.71
2016-11-29T00:36:49.912Z,-3.6
2016-11-29T00:37:49.939Z,-3.67
2016-11-29T00:38:49.944Z,-3.64
2016-11-29T00:39:49.934Z,-3.67
2016-11-29T00:40:50.186Z,-3.54
2016-11-29T00:41:49.949Z,-3.86
2016-11-29T00:42:49.902Z,-3.72
2016-11-29T00:43:49.967Z,-3.61
2016-11-29T00:44:49.999Z,-3.54
2016-11-29T00:45:49.937Z,-3.72
2016-11-29T00:46:49.922Z,-3.7
2016-11-29T00:47:49.903Z,-3.71
2016-11-29T00:48:49.966Z,-3.71
2016-11-29T00:49:49.942Z,-3.72
2016-11-29T00:50:50.266Z,-3.72
2016-11-29T00:51:49.983Z,-3.72
2016-11-29T00:52:50.080Z,-3.61
2016-11-29T00:53:49.937Z,-3.84
2016-11-29T00:54:49.954Z,-3.75
2016-11-29T00:55:50.315Z,-3.78
2016-11-29T00:56:49.922Z,-3.57
2016-11-29T00:57:50.362Z,-3.62
2016-11-29T00:58:49.928Z,-3.71
2016-11-29T00:59:49.938Z,-3.65
2016-11-29T01:00:49.899Z,-3.67
2016-11-29T01:01:49.951Z,-3.8
2016-11-29T01:02:50.018Z,-3.57
2016-11-29T01:03:49.981Z,-3.67
2016-11-29T01:04:49.911Z,-3.65
2016-11-29T01:05:49.992Z,-3.68
2016-11-29T01:06:50.632Z,-3.71
2016-11-29T01:07:49.919Z,-3.71
2016-11-29T01:08:49.925Z,-3.62
2016-11-29T01:09:49.916Z,-3.6
2016-11-29T01:10:49.906Z,-3.68
2016-11-29T01:11:50.219Z,-3.78
2016-11-29T01:12:50.020Z,-3.67
2016-11-29T01:13:50.720Z,-3.64
2016-11-29T01:14:49.944Z,-3.62
2016-11-29T01:15:50.031Z,-3.75
2016-11-29T01:16:49.953Z,-3.65
2016-11-29T01:17:50.081Z,-3.67
2016-11-29T01:18:49.951Z,-3.81
2016-11-29T01:19:49.932Z,-3.72
2016-11-29T01:20:50.114Z,-3.9
2016-11-29T01:21:50.141Z,-3.89
2016-11-29T01:22:50.090Z,-3.87
2016-11-29T01:23:49.925Z,-3.76
2016-11-29T01:24:50.034Z,-3.72
2016-11-29T01:25:50.105Z,-3.8
2016-11-29T01:26:49.948Z,-3.8
2016-11-29T01:27:49.933Z,-3.81
2016-11-29T01:28:50.076Z,-3.86
2016-11-29T01:29:49.975Z,-3.93
2016-11-29T01:30:50.009Z,-3.84
2016-11-29T01:31:49.943Z,-3.83
2016-11-29T01:32:49.924Z,-3.9
2016-11-29T01:33:49.980Z,-4.01
2016-11-29T01:34:50.040Z,-3.91
2016-11-29T01:35:50.036Z,-3.98
2016-11-29T01:36:50.060Z,-3.99
2016-11-29T01:37:49.916Z,-4.01
2016-11-29T01:38:50.614Z,-4.08
2016-11-29T01:39:49.945Z,-3.99
2016-11-29T01:40:49.922Z,-4.02
2016-11-29T01:41:49.945Z,-4.09
2016-11-29T01:42:49.919Z,-4.14
2016-11-29T01:43:50.014Z,-4.08
2016-11-29T01:44:49.945Z,-4.09
2016-11-29T01:45:50.103Z,-4.08
2016-11-29T01:46:50.047Z,-4.05
2016-11-29T01:47:50.009Z,-4.15
2016-11-29T01:48:50.101Z,-4.08
2016-11-29T01:49:49.964Z,-4.05
2016-11-29T01:50:49.943Z,-4.08
2016-11-29T01:51:50.104Z,-4.12
2016-11-29T01:52:49.939Z,-4.28
2016-11-29T01:53:50.174Z,-4.19
2016-11-29T01:54:49.941Z,-4.25
2016-11-29T01:55:49.961Z,-4.19
2016-11-29T01:56:49.953Z,-4.2
2016-11-29T01:57:49.947Z,-4.12
2016-11-29T01:58:49.931Z,-4.18
2016-11-29T01:59:49.947Z,-4.15
2016-11-29T02:00:49.967Z,-4.15
2016-11-29T02:01:49.974Z,-4.12
2016-11-29T02:02:49.953Z,-4.22
2016-11-29T02:03:49.942Z,-4.19
2016-11-29T02:04:50.302Z,-4.33
2016-11-29T02:05:50.244Z,-4.22
2016-11-29T02:06:50.033Z,-4.23
2016-11-29T02:07:49.953Z,-4.26
2016-11-29T02:08:50.170Z,-4.29
2016-11-29T02:09:49.937Z,-4.46
2016-11-29T02:10:49.979Z,-4.36
2016-11-29T02:11:49.954Z,-4.38
2016-11-29T02:12:49.956Z,-4.33
2016-11-29T02:13:49.948Z,-4.38
2016-11-29T02:14:49.958Z,-4.36
2016-11-29T02:15:49.976Z,-4.2
2016-11-29T02:16:50.044Z,-4.46
2016-11-29T02:17:50.034Z,-4.36
2016-11-29T02:18:49.953Z,-4.4
2016-11-29T02:19:50.258Z,-4.46
2016-11-29T02:20:49.951Z,-4.51
2016-11-29T02:21:50.121Z,-4.37
2016-11-29T02:22:49.953Z,-4.51
2016-11-29T02:23:49.959Z,-4.48
2016-11-29T02:24:50.089Z,-4.48
2016-11-29T02:25:50.007Z,-4.48
2016-11-29T02:26:50.010Z,-4.54
2016-11-29T02:27:50.061Z,-4.46
2016-11-29T02:28:50.231Z,-4.5
2016-11-29T02:29:49.956Z,-4.47
2016-11-29T02:30:50.144Z,-4.4
2016-11-29T02:31:50.033Z,-4.3
2016-11-29T02:32:50.043Z,-4.29
2016-11-29T02:33:49.968Z,-4.36
2016-11-29T02:34:49.970Z,-4.43
2016-11-29T02:35:49.961Z,-4.28
2016-11-29T02:36:50.161Z,-4.25
2016-11-29T02:37:50.196Z,-4.23
2016-11-29T02:38:49.966Z,-4.22
2016-11-29T02:39:50.662Z,-4.28
2016-11-29T02:40:49.978Z,-4.29
2016-11-29T02:41:49.983Z,-4.33
2016-11-29T02:42:50.038Z,-4.28
2016-11-29T02:43:50.114Z,-4.14
2016-11-29T02:44:49.959Z,-4.12
2016-11-29T02:45:49.985Z,-4.33
2016-11-29T02:46:50.403Z,-4.32
2016-11-29T02:47:50.101Z,-4.32
2016-11-29T02:48:49.968Z,-4.37
2016-11-29T02:49:49.963Z,-4.14
2016-11-29T02:50:50.258Z,-4.22
2016-11-29T02:51:50.315Z,-4.15
2016-11-29T02:52:50.060Z,-4.19
2016-11-29T02:53:49.982Z,-4.25
2016-11-29T02:54:53.009Z,-4.23
2016-11-29T02:55:50.067Z,-4.25
2016-11-29T02:56:50.438Z,-4.28
2016-11-29T02:57:50.174Z,-4.33
2016-11-29T02:58:50.093Z,-4.23
2016-11-29T02:59:50.004Z,-4.26
2016-11-29T03:00:49.986Z,-4.2
2016-11-29T03:01:49.998Z,-4.15
2016-11-29T03:02:49.982Z,-4.25
2016-11-29T03:03:50.124Z,-4.26
2016-11-29T03:04:49.973Z,-4.41
2016-11-29T03:05:50.026Z,-4.15
2016-11-29T03:06:50.059Z,-4.4
2016-11-29T03:07:49.973Z,-4.33
2016-11-29T03:08:49.972Z,-4.29
2016-11-29T03:09:50.096Z,-4.32
2016-11-29T03:10:49.976Z,-4.25
2016-11-29T03:11:50.089Z,-4.32
2016-11-29T03:12:49.993Z,-4.47
2016-11-29T03:13:49.968Z,-4.2
2016-11-29T03:14:50.008Z,-4.32
2016-11-29T03:15:49.994Z,-4.36
2016-11-29T03:16:49.985Z,-4.28
2016-11-29T03:17:49.979Z,-4.37
2016-11-29T03:18:49.975Z,-4.44
2016-11-29T03:19:49.978Z,-4.43
2016-11-29T03:20:51.045Z,-4.43
2016-11-29T03:21:50.070Z,-4.5
2016-11-29T03:22:49.979Z,-4.55
2016-11-29T03:23:50.155Z,-4.46
2016-11-29T03:24:49.998Z,-4.47
2016-11-29T03:25:49.981Z,-4.51
2016-11-29T03:26:50.122Z,-4.61
2016-11-29T03:27:49.990Z,-4.64
2016-11-29T03:28:50.321Z,-4.58
2016-11-29T03:29:49.974Z,-4.64
2016-11-29T03:30:50.092Z,-4.58
2016-11-29T03:31:50.165Z,-4.57
2016-11-29T03:32:50.351Z,-4.73
2016-11-29T03:33:49.988Z,-4.57
2016-11-29T03:34:50.188Z,-4.71
2016-11-29T03:35:50.026Z,-4.68
2016-11-29T03:36:50.031Z,-4.75
2016-11-29T03:37:50.179Z,-4.66
2016-11-29T03:38:50.033Z,-4.69
2016-11-29T03:39:50.201Z,-4.62
2016-11-29T03:40:49.988Z,-4.71
2016-11-29T03:41:49.998Z,-4.68
2016-11-29T03:42:50.106Z,-4.61
2016-11-29T03:43:49.982Z,-4.65
2016-11-29T03:44:50.000Z,-4.73
2016-11-29T03:45:50.546Z,-4.8
2016-11-29T03:46:50.010Z,-4.71
2016-11-29T03:47:49.999Z,-4.66
2016-11-29T03:48:50.012Z,-4.68
2016-11-29T03:49:50.080Z,-4.71
2016-11-29T03:50:49.994Z,-4.65
2016-11-29T03:51:50.041Z,-4.79
2016-11-29T03:52:49.997Z,-4.61
2016-11-29T03:53:50.108Z,-4.66
2016-11-29T03:54:49.993Z,-4.75
2016-11-29T03:55:50.452Z,-4.76
2016-11-29T03:56:50.461Z,-4.79
2016-11-29T03:57:49.993Z,-4.69
2016-11-29T03:58:50.365Z,-4.77
2016-11-29T03:59:50.017Z,-4.77
2016-11-29T04:00:49.990Z,-4.91
2016-11-29T04:01:50.203Z,-4.79
2016-11-29T04:02:50.168Z,-4.8
2016-11-29T04:03:50.016Z,-4.8
2016-11-29T04:04:50.004Z,-4.76
2016-11-29T04:05:50.024Z,-4.86
2016-11-29T04:06:50.025Z,-4.89
2016-11-29T04:07:50.003Z,-4.77
2016-11-29T04:08:50.000Z,-4.69
2016-11-29T04:09:49.999Z,-4.75
2016-11-29T04:10:49.991Z,-4.71
2016-11-29T04:11:51.134Z,-4.62
2016-11-29T04:12:50.167Z,-4.59
2016-11-29T04:13:49.999Z,-4.59
2016-11-29T04:14:50.052Z,-4.48
2016-11-29T04:15:50.010Z,-4.48
2016-11-29T04:16:50.773Z,-4.46
2016-11-29T04:17:49.992Z,-4.37
2016-11-29T04:18:50.117Z,-4.57
2016-11-29T04:19:50.021Z,-4.43
2016-11-29T04:20:50.063Z,-4.44
2016-11-29T04:21:50.026Z,-4.43
2016-11-29T04:22:50.036Z,-4.51
2016-11-29T04:23:50.039Z,-4.65
2016-11-29T04:24:50.148Z,-4.48
2016-11-29T04:25:50.156Z,-4.62
2016-11-29T04:26:50.018Z,-4.54
2016-11-29T04:27:50.119Z,-4.64
2016-11-29T04:28:50.017Z,-4.68
2016-11-29T04:29:50.047Z,-4.62
2016-11-29T04:30:50.020Z,-4.62
2016-11-29T04:31:50.199Z,-4.76
2016-11-29T04:32:50.004Z,-4.76
2016-11-29T04:33:49.995Z,-4.75
2016-11-29T04:34:50.019Z,-4.73
2016-11-29T04:35:50.008Z,-4.8
2016-11-29T04:36:50.021Z,-4.82
2016-11-29T04:37:50.005Z,-4.89
2016-11-29T04:38:50.012Z,-4.87
2016-11-29T04:39:49.997Z,-4.79
2016-11-29T04:40:50.014Z,-4.83
2016-11-29T04:41:50.025Z,-4.85
2016-11-29T04:42:50.008Z,-4.79
2016-11-29T04:43:50.013Z,-4.76
2016-11-29T04:44:50.005Z,-4.77
2016-11-29T04:45:50.029Z,-4.71
2016-11-29T04:46:50.039Z,-4.71
2016-11-29T04:47:50.029Z,-4.77
2016-11-29T04:48:50.038Z,-4.8
2016-11-29T04:49:50.014Z,-4.68
2016-11-29T04:50:50.018Z,-4.76
2016-11-29T04:51:50.082Z,-4.44
2016-11-29T04:52:50.015Z,-4.59
2016-11-29T04:53:50.012Z,-4.57
2016-11-29T04:54:50.012Z,-4.62
2016-11-29T04:55:50.039Z,-4.43
2016-11-29T04:56:50.038Z,-4.55
2016-11-29T04:57:50.017Z,-4.47
2016-11-29T04:58:50.039Z,-4.5
2016-11-29T04:59:50.016Z,-4.29
2016-11-29T05:00:50.026Z,-4.48
2016-11-29T05:01:50.041Z,-4.41
2016-11-29T05:02:50.019Z,-4.37
2016-11-29T05:03:50.027Z,-4.4
2016-11-29T05:04:50.046Z,-4.44
2016-11-29T05:05:50.027Z,-4.37
2016-11-29T05:06:50.045Z,-4.44
2016-11-29T05:07:50.026Z,-4.44
2016-11-29T05:08:50.024Z,-4.59
2016-11-29T05:09:50.024Z,-4.59
2016-11-29T05:10:50.055Z,-4.51
2016-11-29T05:11:50.048Z,-4.64
2016-11-29T05:12:50.026Z,-4.65
2016-11-29T05:13:50.032Z,-4.61
2016-11-29T05:14:50.020Z,-4.77
2016-11-29T05:15:50.050Z,-4.76
2016-11-29T05:16:50.077Z,-4.85
2016-11-29T05:17:50.025Z,-4.75
2016-11-29T05:18:50.033Z,-4.87
2016-11-29T05:19:50.067Z,-4.83
2016-11-29T05:20:50.036Z,-4.83
2016-11-29T05:21:50.080Z,-4.86
2016-11-29T05:22:50.153Z,-4.82
2016-11-29T05:23:50.049Z,-4.89
2016-11-29T05:24:50.085Z,-4.83
2016-11-29T05:25:50.059Z,-4.95
2016-11-29T05:26:50.081Z,-4.98
2016-11-29T05:27:50.047Z,-5.11
2016-11-29T05:28:50.197Z,-4.86
2016-11-29T05:29:50.084Z,-4.95
2016-11-29T05:30:51.038Z,-5
2016-11-29T05:31:50.152Z,-4.91
2016-11-29T05:32:50.102Z,-5.11
2016-11-29T05:33:50.050Z,-4.97
2016-11-29T05:34:50.061Z,-5.08
2016-11-29T05:35:50.077Z,-5.11
2016-11-29T05:36:50.659Z,-5.04
2016-11-29T05:37:50.050Z,-4.95
2016-11-29T05:38:50.048Z,-4.95
2016-11-29T05:39:50.232Z,-5.12
2016-11-29T05:40:50.112Z,-4.98
2016-11-29T05:41:50.068Z,-5
2016-11-29T05:42:50.052Z,-5.19
2016-11-29T05:43:50.050Z,-4.95
2016-11-29T05:44:50.447Z,-5.17
2016-11-29T05:45:50.137Z,-5.05
2016-11-29T05:46:50.070Z,-5.22
2016-11-29T05:47:50.089Z,-5.01
2016-11-29T05:48:50.055Z,-5.14
2016-11-29T05:49:50.046Z,-5.05
2016-11-29T05:50:50.049Z,-5.16
2016-11-29T05:51:50.262Z,-5.11
2016-11-29T05:52:50.076Z,-5.11
2016-11-29T05:53:50.681Z,-5.2
2016-11-29T05:54:50.233Z,-5.16
2016-11-29T05:55:50.086Z,-5.27
2016-11-29T05:56:50.070Z,-5.23
2016-11-29T05:57:50.071Z,-5.26
2016-11-29T05:58:50.438Z,-5.22
2016-11-29T05:59:50.221Z,-5.26
2016-11-29T06:00:50.056Z,-5.17
2016-11-29T06:01:50.324Z,-5.31
2016-11-29T06:02:50.080Z,-5.3
2016-11-29T06:03:50.062Z,-5.16
2016-11-29T06:04:50.070Z,-5.22
2016-11-29T06:05:50.083Z,-5.05
2016-11-29T06:06:50.115Z,-5.05
2016-11-29T06:07:50.232Z,-5.16
2016-11-29T06:08:50.525Z,-5.12
2016-11-29T06:09:50.088Z,-5.2
2016-11-29T06:10:50.068Z,-5.17
2016-11-29T06:11:50.327Z,-5.26
2016-11-29T06:12:50.082Z,-5.23
2016-11-29T06:13:50.329Z,-5.3
2016-11-29T06:14:50.091Z,-5.33
2016-11-29T06:15:50.085Z,-5.3
2016-11-29T06:16:50.105Z,-5.19
2016-11-29T06:17:50.072Z,-5.16
2016-11-29T06:18:50.060Z,-5.26
2016-11-29T06:19:50.112Z,-5.31
2016-11-29T06:20:50.059Z,-5.3
2016-11-29T06:21:50.094Z,-5.31
2016-11-29T06:22:50.102Z,-5.27
2016-11-29T06:23:50.099Z,-5.35
2016-11-29T06:24:50.105Z,-5.43
2016-11-29T06:25:50.092Z,-5.35
2016-11-29T06:26:50.091Z,-5.3
2016-11-29T06:27:50.165Z,-5.3
2016-11-29T06:28:50.241Z,-5.47
2016-11-29T06:29:50.152Z,-5.27
2016-11-29T06:30:50.094Z,-5.27
2016-11-29T06:31:50.185Z,-5.33
2016-11-29T06:32:50.410Z,-5.26
2016-11-29T06:33:50.216Z,-5.33
2016-11-29T06:34:50.209Z,-5.3
2016-11-29T06:35:50.166Z,-5.31
2016-11-29T06:36:50.428Z,-5.25
2016-11-29T06:37:50.164Z,-5.35
2016-11-29T06:38:50.273Z,-5.27
2016-11-29T06:39:50.229Z,-5.38
2016-11-29T06:40:50.182Z,-5.3
2016-11-29T06:41:50.187Z,-5.33
2016-11-29T06:42:50.094Z,-5.43
2016-11-29T06:43:50.087Z,-5.22
2016-11-29T06:44:50.102Z,-5.23
2016-11-29T06:45:50.496Z,-5.4
2016-11-29T06:46:50.302Z,-5.31
2016-11-29T06:47:50.135Z,-5.3
2016-11-29T06:48:50.165Z,-5.44
2016-11-29T06:49:50.094Z,-5.4
2016-11-29T06:50:50.100Z,-5.54
2016-11-29T06:51:50.244Z,-5.31
2016-11-29T06:52:50.148Z,-5.41
2016-11-29T06:53:50.174Z,-5.38
2016-11-29T06:54:50.152Z,-5.38
2016-11-29T06:55:50.500Z,-5.35
2016-11-29T06:56:50.177Z,-5.41
2016-11-29T06:57:50.156Z,-5.4
2016-11-29T06:58:50.114Z,-5.25
2016-11-29T06:59:50.543Z,-5.44
2016-11-29T07:00:50.924Z,-5.31
2016-11-29T07:01:50.271Z,-5.27
2016-11-29T07:02:50.892Z,-5.35
2016-11-29T07:03:50.143Z,-5.47
2016-11-29T07:04:50.366Z,-5.43
2016-11-29T07:05:50.196Z,-5.47
2016-11-29T07:06:50.377Z,-5.41
2016-11-29T07:07:50.222Z,-5.52
2016-11-29T07:08:50.090Z,-5.54
2016-11-29T07:09:50.113Z,-5.38
2016-11-29T07:10:50.116Z,-5.41
2016-11-29T07:11:50.143Z,-5.34
2016-11-29T07:12:50.213Z,-5.34
2016-11-29T07:13:50.124Z,-5.38
2016-11-29T07:14:50.148Z,-5.45
2016-11-29T07:15:50.124Z,-5.43
2016-11-29T07:16:50.150Z,-5.49
2016-11-29T07:17:50.263Z,-5.4
2016-11-29T07:18:50.214Z,-5.34
2016-11-29T07:19:50.182Z,-5.37
2016-11-29T07:20:50.106Z,-5.34
2016-11-29T07:21:50.124Z,-5.27
2016-11-29T07:22:50.112Z,-5.35
2016-11-29T07:23:51.972Z,-5.33
2016-11-29T07:24:50.121Z,-5.19
2016-11-29T07:25:50.109Z,-5.16
2016-11-29T07:26:50.205Z,-5.11
2016-11-29T07:27:50.092Z,-5.22
2016-11-29T07:28:50.100Z,-5.22
2016-11-29T07:29:50.113Z,-5.22
2016-11-29T07:30:50.132Z,-5.2
2016-11-29T07:31:50.129Z,-5.19
2016-11-29T07:32:50.128Z,-5.2
2016-11-29T07:33:50.162Z,-5.12
2016-11-29T07:34:50.120Z,-5.2
2016-11-29T07:35:50.109Z,-5.19
2016-11-29T07:36:50.132Z,-5.08
2016-11-29T07:37:56.221Z,-5.2
2016-11-29T07:38:50.104Z,-5.17
2016-11-29T07:39:50.162Z,-5.25
2016-11-29T07:40:50.148Z,-5.19
2016-11-29T07:41:50.130Z,-5.23
2016-11-29T07:42:50.137Z,-5.16
2016-11-29T07:43:50.120Z,-5.26
2016-11-29T07:44:50.108Z,-5.22
2016-11-29T07:45:50.128Z,-5.08
2016-11-29T07:46:50.148Z,-5.07
2016-11-29T07:47:50.112Z,-5.12
2016-11-29T07:48:50.117Z,-5.11
2016-11-29T07:49:50.107Z,-5.16
2016-11-29T07:50:50.135Z,-5
2016-11-29T07:51:50.122Z,-5.19
2016-11-29T07:52:50.139Z,-5.05
2016-11-29T07:53:50.131Z,-5.08
2016-11-29T07:54:50.115Z,-5.04
2016-11-29T07:55:50.129Z,-4.93
2016-11-29T07:56:50.126Z,-4.93
2016-11-29T07:57:50.115Z,-4.93
2016-11-29T07:58:50.126Z,-4.76
2016-11-29T07:59:50.294Z,-4.73
2016-11-29T08:00:50.133Z,-4.79
2016-11-29T08:01:50.130Z,-4.71
2016-11-29T08:02:50.108Z,-4.77
2016-11-29T08:03:50.137Z,-4.65
2016-11-29T08:04:50.118Z,-4.55
2016-11-29T08:05:50.120Z,-4.62
2016-11-29T08:06:50.158Z,-4.58
2016-11-29T08:07:50.127Z,-4.62
2016-11-29T08:08:50.140Z,-4.58
2016-11-29T08:09:50.159Z,-4.5
2016-11-29T08:10:50.127Z,-4.5
2016-11-29T08:11:50.159Z,-4.5
2016-11-29T08:12:50.134Z,-4.55
2016-11-29T08:13:50.132Z,-4.58
2016-11-29T08:14:50.154Z,-4.29
2016-11-29T08:15:50.132Z,-4.4
2016-11-29T08:16:50.183Z,-4.43
2016-11-29T08:17:50.149Z,-4.38
2016-11-29T08:18:50.135Z,-4.46
2016-11-29T08:19:50.133Z,-4.4
2016-11-29T08:20:50.127Z,-4.25
2016-11-29T08:21:50.162Z,-4.36
2016-11-29T08:22:50.117Z,-4.4
2016-11-29T08:23:50.149Z,-4.37
2016-11-29T08:24:50.122Z,-4.32
2016-11-29T08:25:50.170Z,-4.26
2016-11-29T08:26:50.168Z,-4.09
2016-11-29T08:27:50.129Z,-4.14
2016-11-29T08:28:50.138Z,-4.19
2016-11-29T08:29:50.120Z,-4.05
2016-11-29T08:30:50.126Z,-4.08
2016-11-29T08:31:50.147Z,-4.14
2016-11-29T08:32:50.149Z,-3.98
2016-11-29T08:33:50.139Z,-4.07
2016-11-29T08:34:50.155Z,-4.02
2016-11-29T08:35:50.131Z,-4.05
2016-11-29T08:36:50.203Z,-4.05
2016-11-29T08:37:50.137Z,-3.83
2016-11-29T08:38:50.142Z,-3.93
2016-11-29T08:39:50.189Z,-3.7
2016-11-29T08:40:50.167Z,-3.78
2016-11-29T08:41:50.185Z,-3.75
2016-11-29T08:42:50.182Z,-3.6
2016-11-29T08:43:50.158Z,-3.64
2016-11-29T08:44:50.172Z,-3.68
2016-11-29T08:45:50.150Z,-3.54
2016-11-29T08:46:50.180Z,-3.54
2016-11-29T08:47:50.161Z,-3.5
2016-11-29T08:48:50.147Z,-3.38
2016-11-29T08:49:50.163Z,-3.41
2016-11-29T08:50:50.182Z,-3.26
2016-11-29T08:51:55.484Z,-3.28
2016-11-29T08:53:07.406Z,-3.23
2016-11-29T08:53:58.223Z,-3.17
2016-11-29T08:54:52.009Z,-3.08
2016-11-29T08:55:50.160Z,-3.04
2016-11-29T08:56:50.179Z,-3
2016-11-29T08:57:50.169Z,-3.02
2016-11-29T08:58:50.163Z,-3.07
2016-11-29T08:59:50.156Z,-2.92
2016-11-29T09:00:50.163Z,-2.94
2016-11-29T09:01:50.183Z,-3.04
2016-11-29T09:02:50.153Z,-2.86
2016-11-29T09:03:50.211Z,-2.9
2016-11-29T09:04:50.176Z,-2.89
2016-11-29T09:05:50.189Z,-2.87
2016-11-29T09:06:50.180Z,-2.74
2016-11-29T09:07:50.143Z,-2.69
2016-11-29T09:08:50.156Z,-2.69
2016-11-29T09:09:50.209Z,-2.81
2016-11-29T09:10:50.214Z,-2.6
2016-11-29T09:11:50.196Z,-2.61
2016-11-29T09:12:50.178Z,-2.61
2016-11-29T09:13:50.177Z,-2.71
2016-11-29T09:14:50.173Z,-2.66
2016-11-29T09:15:50.181Z,-2.45
2016-11-29T09:16:50.454Z,-2.61
2016-11-29T09:17:50.231Z,-2.47
2016-11-29T09:18:50.165Z,-2.54
2016-11-29T09:19:50.163Z,-2.58
2016-11-29T09:20:50.183Z,-2.56
2016-11-29T09:21:50.194Z,-2.43
2016-11-29T09:22:50.165Z,-2.45
2016-11-29T09:23:50.181Z,-2.39
2016-11-29T09:24:50.196Z,-2.43
2016-11-29T09:25:50.216Z,-2.47
2016-11-29T09:26:50.221Z,-2.26
2016-11-29T09:27:50.184Z,-2.39
2016-11-29T09:28:50.159Z,-2.29
2016-11-29T09:29:50.181Z,-2.21
2016-11-29T09:30:50.173Z,-2.32
2016-11-29T09:31:50.204Z,-2.17
2016-11-29T09:32:50.247Z,-2.18
2016-11-29T09:33:50.150Z,-2.17
2016-11-29T09:34:50.179Z,-2.1
2016-11-29T09:35:50.227Z,-2.14
2016-11-29T09:36:50.214Z,-2.17
2016-11-29T09:37:50.211Z,-2.06
2016-11-29T09:38:50.203Z,-2.1
2016-11-29T09:39:50.173Z,-2.13
2016-11-29T09:40:50.160Z,-1.98
2016-11-29T09:41:50.194Z,-1.99
2016-11-29T09:42:50.200Z,-1.99
2016-11-29T09:43:50.167Z,-2
2016-11-29T09:44:50.176Z,-2.14
2016-11-29T09:45:50.182Z,-1.95
2016-11-29T09:46:50.256Z,-2.03
2016-11-29T09:47:50.176Z,-2
2016-11-29T09:48:50.194Z,-1.92
2016-11-29T09:49:50.169Z,-2.08
2016-11-29T09:50:50.181Z,-1.84
2016-11-29T09:51:50.203Z,-1.98
2016-11-29T09:52:50.209Z,-1.82
2016-11-29T09:53:50.179Z,-1.8
2016-11-29T09:54:50.213Z,-1.81
2016-11-29T09:55:50.179Z,-1.7
2016-11-29T09:56:50.230Z,-1.77
2016-11-29T09:57:50.206Z,-1.78
2016-11-29T09:58:50.201Z,-1.6
2016-11-29T09:59:50.202Z,-1.57
2016-11-29T10:00:50.754Z,-1.57
2016-11-29T10:01:50.277Z,-1.64
2016-11-29T10:02:50.185Z,-1.64
2016-11-29T10:03:50.202Z,-1.45
2016-11-29T10:04:50.192Z,-1.48
2016-11-29T10:05:50.213Z,-1.46
2016-11-29T10:06:50.207Z,-1.36
2016-11-29T10:07:50.185Z,-1.38
2016-11-29T10:08:50.202Z,-1.3
2016-11-29T10:09:50.201Z,-1.33
2016-11-29T10:10:50.207Z,-1.33
2016-11-29T10:11:50.222Z,-1.18
2016-11-29T10:12:50.182Z,-1.21
2016-11-29T10:13:50.220Z,-1.33
2016-11-29T10:14:50.196Z,-1.23
2016-11-29T10:15:50.204Z,-1.17
2016-11-29T10:16:50.220Z,-1.1
2016-11-29T10:17:50.203Z,-1.03
2016-11-29T10:18:50.179Z,-1.13
2016-11-29T10:19:50.195Z,-1.13
2016-11-29T10:20:50.895Z,-1.03
2016-11-29T10:21:50.216Z,-1
2016-11-29T10:22:50.224Z,-0.97
2016-11-29T10:23:50.206Z,-0.86
2016-11-29T10:24:50.279Z,-1.06
2016-11-29T10:25:50.239Z,-0.86
2016-11-29T10:26:50.216Z,-0.8
2016-11-29T10:27:50.207Z,-0.77
2016-11-29T10:28:50.225Z,-0.78
2016-11-29T10:29:50.255Z,-0.75
2016-11-29T10:30:50.226Z,-0.75
2016-11-29T10:31:50.228Z,-0.84
2016-11-29T10:32:50.298Z,-0.69
2016-11-29T10:33:50.227Z,-0.66
2016-11-29T10:34:50.222Z,-0.57
2016-11-29T10:35:50.226Z,-0.59
2016-11-29T10:36:50.238Z,-0.65
2016-11-29T10:37:50.212Z,-0.57
2016-11-29T10:38:50.226Z,-0.55
2016-11-29T10:39:50.204Z,-0.51
2016-11-29T10:40:50.225Z,-0.44
2016-11-29T10:41:50.238Z,-0.57
2016-11-29T10:42:50.226Z,-0.45
2016-11-29T10:43:50.241Z,-0.55
2016-11-29T10:44:50.218Z,-0.45
2016-11-29T10:45:50.217Z,-0.37
2016-11-29T10:46:50.239Z,-0.33
2016-11-29T10:47:50.225Z,-0.34
2016-11-29T10:48:50.236Z,-0.19
2016-11-29T10:49:50.243Z,-0.19
2016-11-29T10:50:50.238Z,-0.23
2016-11-29T10:51:50.251Z,-0.19
2016-11-29T10:52:50.232Z,-0.18
2016-11-29T10:53:50.225Z,-0.09
2016-11-29T10:54:50.244Z,-0.12
2016-11-29T10:55:50.236Z,-0.09
2016-11-29T10:56:50.244Z,-0.09
2016-11-29T10:57:50.234Z,-0.15
2016-11-29T10:58:50.250Z,-0.01
2016-11-29T10:59:50.252Z,0.07
2016-11-29T11:00:50.287Z,-0.11
2016-11-29T11:01:50.272Z,-0.11
2016-11-29T11:02:50.236Z,-0.09
2016-11-29T11:03:50.298Z,0.07
2016-11-29T11:04:50.288Z,0.06
2016-11-29T11:05:50.260Z,0.09
2016-11-29T11:06:50.312Z,0.23
2016-11-29T11:07:50.272Z,0.18
2016-11-29T11:08:50.262Z,0.24
2016-11-29T11:09:50.252Z,0.2
2016-11-29T11:10:50.270Z,0.3
2016-11-29T11:11:50.296Z,0.15
2016-11-29T11:12:50.333Z,0.3
2016-11-29T11:13:50.296Z,0.25
2016-11-29T11:14:50.288Z,0.28
2016-11-29T11:15:50.279Z,0.23
2016-11-29T11:16:50.356Z,0.33
2016-11-29T11:17:50.266Z,0.27
2016-11-29T11:18:50.250Z,0.33
2016-11-29T11:19:51.998Z,0.41
2016-11-29T11:20:50.267Z,0.36
2016-11-29T11:21:50.293Z,0.36
2016-11-29T11:22:50.332Z,0.43
2016-11-29T11:23:50.273Z,0.3
2016-11-29T11:24:50.267Z,0.45
2016-11-29T11:25:50.278Z,0.38
2016-11-29T11:26:50.314Z,0.42
2016-11-29T11:27:50.289Z,0.46
2016-11-29T11:28:50.278Z,0.49
2016-11-29T11:29:50.270Z,0.34
2016-11-29T11:30:50.310Z,0.58
2016-11-29T11:31:50.281Z,0.48
2016-11-29T11:32:50.344Z,0.57
2016-11-29T11:33:50.280Z,0.52
2016-11-29T11:34:50.272Z,0.53
2016-11-29T11:35:50.292Z,0.46
2016-11-29T11:36:50.311Z,0.42
2016-11-29T11:37:50.271Z,0.62
2016-11-29T11:38:50.281Z,0.52
2016-11-29T11:39:50.289Z,0.72
2016-11-29T11:40:50.267Z,0.64
2016-11-29T11:41:50.319Z,0.58
2016-11-29T11:42:50.361Z,0.62
2016-11-29T11:43:50.272Z,0.62
2016-11-29T11:44:50.270Z,0.72
2016-11-29T11:45:50.297Z,0.8
2016-11-29T11:46:50.283Z,0.7
2016-11-29T11:47:50.260Z,0.78
2016-11-29T11:48:50.266Z,0.76
2016-11-29T11:49:50.258Z,0.82
2016-11-29T11:50:50.380Z,0.72
2016-11-29T11:51:50.378Z,0.64
2016-11-29T11:52:50.392Z,0.82
2016-11-29T11:53:50.564Z,0.72
2016-11-29T11:54:50.298Z,0.82
2016-11-29T11:55:50.296Z,0.85
2016-11-29T11:56:50.337Z,0.89
2016-11-29T11:57:50.290Z,0.86
2016-11-29T11:58:50.311Z,0.94
2016-11-29T11:59:50.255Z,0.9
2016-11-29T12:00:50.290Z,0.92
2016-11-29T12:01:50.348Z,0.9
2016-11-29T12:02:50.290Z,0.83
2016-11-29T12:03:50.332Z,1
2016-11-29T12:04:50.325Z,1
2016-11-29T12:05:50.336Z,1
2016-11-29T12:06:50.336Z,1
2016-11-29T12:07:50.349Z,1.01
2016-11-29T12:08:50.314Z,1.01
2016-11-29T12:09:50.320Z,1
2016-11-29T12:10:50.364Z,0.92
2016-11-29T12:11:50.300Z,1
2016-11-29T12:12:50.320Z,1.06
2016-11-29T12:13:50.330Z,1.12
2016-11-29T12:14:50.332Z,1.22
2016-11-29T12:15:50.323Z,0.97
2016-11-29T12:16:50.960Z,1.06
2016-11-29T12:17:50.351Z,1.16
2016-11-29T12:18:50.319Z,1.16
2016-11-29T12:19:50.341Z,1.25
2016-11-29T12:20:50.343Z,1.19
2016-11-29T12:21:50.329Z,1.19
2016-11-29T12:22:50.355Z,1.1
2016-11-29T12:23:50.294Z,1.18
2016-11-29T12:24:50.318Z,1.1
2016-11-29T12:25:50.323Z,1.22
2016-11-29T12:26:50.316Z,1.14
2016-11-29T12:27:50.366Z,1.22
2016-11-29T12:28:50.323Z,1.28
2016-11-29T12:29:50.326Z,1.21
2016-11-29T12:30:50.318Z,1.15
2016-11-29T12:31:51.011Z,1.15
2016-11-29T12:32:50.301Z,1.24
2016-11-29T12:33:50.306Z,1.29
2016-11-29T12:34:50.354Z,1.25
2016-11-29T12:35:50.334Z,1.34
2016-11-29T12:36:50.366Z,1.22
2016-11-29T12:37:50.333Z,1.26
2016-11-29T12:38:50.301Z,1.33
2016-11-29T12:39:50.321Z,1.29
2016-11-29T12:40:50.315Z,1.25
2016-11-29T12:41:50.325Z,1.28
2016-11-29T12:42:50.318Z,1.29
2016-11-29T12:43:50.323Z,1.4
2016-11-29T12:44:50.350Z,1.37
2016-11-29T12:45:50.328Z,1.37
2016-11-29T12:46:50.321Z,1.36
2016-11-29T12:47:50.303Z,1.42
2016-11-29T12:48:50.334Z,1.39
2016-11-29T12:49:50.345Z,1.46
2016-11-29T12:50:54.377Z,1.39
2016-11-29T12:51:54.147Z,1.39
2016-11-29T12:52:52.796Z,1.46
2016-11-29T12:53:53.947Z,1.4
2016-11-29T12:54:51.945Z,1.39
2016-11-29T12:55:53.251Z,1.52
2016-11-29T12:56:52.862Z,1.4
2016-11-29T12:57:53.632Z,1.37
2016-11-29T12:58:52.284Z,1.43
2016-11-29T12:59:54.812Z,1.33
2016-11-29T13:00:52.524Z,1.46